createdAt,value
2023-10-05T00:02:13.993Z,82.58
2023-10-05T00:04:44.520Z,82.30
2023-10-05T00:07:19.614Z,82.73
2023-10-05T00:09:46.612Z,83.49
2023-10-05T00:12:29.174Z,82.02
2023-10-05T00:15:09.757Z,81.52
2023-10-05T00:17:41.001Z,81.72
2023-10-05T00:20:34.570Z,81.42
2023-10-05T00:23:04.732Z,81.17
2023-10-05T00:25:33.836Z,81.53
2023-10-05T00:28:05.472Z,81.07
2023-10-05T00:30:32.661Z,80.80
2023-10-05T00:33:01.519Z,80.98
2023-10-05T00:35:30.562Z,80.38
2023-10-05T00:38:17.989Z,80.43
2023-10-05T00:40:56.913Z,81.58
2023-10-05T00:43:27.290Z,80.47
2023-10-05T00:45:58.437Z,80.50
2023-10-05T00:48:31.563Z,80.19
2023-10-05T00:51:19.361Z,80.28
2023-10-05T00:53:48.928Z,79.44
2023-10-05T00:56:19.597Z,81.10
2023-10-05T00:58:48.579Z,81.00
2023-10-05T01:01:23.916Z,81.36
2023-10-05T01:04:09.755Z,80.04
2023-10-05T01:06:42.915Z,79.61
2023-10-05T01:09:36.727Z,79.92
2023-10-05T01:12:12.689Z,80.18
2023-10-05T01:14:41.160Z,80.05
2023-10-05T01:17:08.262Z,80.09
2023-10-05T01:19:40.353Z,79.92
2023-10-05T01:22:13.263Z,80.12
2023-10-05T01:24:40.414Z,79.64
2023-10-05T01:27:07.352Z,81.10
2023-10-05T01:29:34.216Z,81.50
2023-10-05T01:32:01.459Z,80.54
2023-10-05T01:34:28.439Z,80.37
2023-10-05T01:36:56.466Z,80.11
2023-10-05T01:39:24.414Z,80.63
2023-10-05T01:41:51.626Z,80.67
2023-10-05T01:44:19.035Z,81.27
2023-10-05T01:46:46.031Z,81.94
2023-10-05T01:49:13.000Z,81.34
2023-10-05T01:51:40.032Z,81.19
2023-10-05T01:54:13.363Z,80.93
2023-10-05T01:56:41.200Z,81.16
2023-10-05T01:59:09.051Z,83.02
2023-10-05T02:01:41.840Z,82.26
2023-10-05T02:04:09.280Z,81.44
2023-10-05T02:06:47.068Z,81.63
2023-10-05T02:09:15.787Z,81.78
2023-10-05T02:11:42.729Z,82.76
2023-10-05T02:14:14.034Z,82.15
2023-10-05T02:16:43.005Z,81.48
2023-10-05T02:19:10.426Z,81.29
2023-10-05T02:21:38.036Z,81.43
2023-10-05T02:24:19.043Z,81.58
2023-10-05T02:27:00.300Z,82.01
2023-10-05T02:29:29.134Z,82.80
2023-10-05T02:32:06.410Z,82.48
2023-10-05T02:34:43.795Z,82.43
2023-10-05T02:37:12.959Z,82.63
2023-10-05T02:39:42.097Z,82.54
2023-10-05T02:42:13.795Z,83.64
2023-10-05T02:44:41.679Z,83.14
2023-10-05T02:47:16.337Z,82.31
2023-10-05T02:49:49.166Z,82.54
2023-10-05T02:52:18.845Z,82.32
2023-10-05T02:54:47.141Z,82.63
2023-10-05T02:57:17.808Z,82.60
2023-10-05T02:59:45.216Z,83.47
2023-10-05T03:02:16.406Z,82.88
2023-10-05T03:05:10.731Z,82.88
2023-10-05T03:07:42.317Z,82.21
2023-10-05T03:10:14.940Z,81.92
2023-10-05T03:12:41.989Z,82.23
2023-10-05T03:15:10.130Z,82.85
2023-10-05T03:17:38.686Z,82.62
2023-10-05T03:20:16.938Z,82.37
2023-10-05T03:22:47.324Z,82.38
2023-10-05T03:25:16.533Z,82.63
2023-10-05T03:27:46.875Z,82.54
2023-10-05T03:30:15.817Z,83.93
2023-10-05T03:32:43.176Z,83.83
2023-10-05T03:35:14.813Z,83.48
2023-10-05T03:37:43.350Z,83.56
2023-10-05T03:40:21.363Z,83.76
2023-10-05T03:42:49.994Z,83.46
2023-10-05T03:45:18.254Z,84.14
2023-10-05T03:47:45.294Z,84.52
2023-10-05T03:50:18.929Z,83.97
2023-10-05T03:52:46.934Z,83.33
2023-10-05T03:55:14.333Z,83.62
2023-10-05T03:57:43.145Z,83.82
2023-10-05T04:00:25.077Z,84.04
2023-10-05T04:02:56.262Z,84.84
2023-10-05T04:05:24.657Z,85.50
2023-10-05T04:07:53.795Z,84.70
2023-10-05T04:10:39.584Z,84.04
2023-10-05T04:13:06.789Z,83.91
2023-10-05T04:15:33.749Z,84.59
2023-10-05T04:18:01.082Z,84.41
2023-10-05T04:20:31.259Z,83.57
2023-10-05T04:22:58.315Z,84.88
2023-10-05T04:25:25.573Z,84.59
2023-10-05T04:27:54.353Z,84.22
2023-10-05T04:30:23.055Z,84.15
2023-10-05T04:32:50.561Z,84.13
2023-10-05T04:35:24.339Z,83.83
2023-10-05T04:37:51.579Z,84.09
2023-10-05T04:40:21.264Z,84.46
2023-10-05T04:42:48.295Z,84.23
2023-10-05T04:45:15.977Z,84.35
2023-10-05T04:47:43.334Z,83.77
2023-10-05T04:50:15.023Z,83.46
2023-10-05T04:52:42.753Z,83.52
2023-10-05T04:55:33.552Z,83.92
2023-10-05T04:58:20.936Z,84.26
2023-10-05T05:00:48.141Z,83.63
2023-10-05T05:03:27.697Z,83.94
2023-10-05T05:06:14.934Z,83.77
2023-10-05T05:08:42.191Z,84.08
2023-10-05T05:11:20.270Z,84.43
2023-10-05T05:13:50.543Z,84.07
2023-10-05T05:16:17.662Z,83.83
2023-10-05T05:18:51.686Z,83.25
2023-10-05T05:21:18.722Z,83.31
2023-10-05T05:23:48.629Z,84.03
2023-10-05T05:26:15.984Z,83.84
2023-10-05T05:28:53.532Z,84.18
2023-10-05T05:31:20.719Z,84.05
2023-10-05T05:33:47.723Z,83.55
2023-10-05T05:36:15.224Z,83.81
2023-10-05T05:38:42.925Z,83.72
2023-10-05T05:41:14.058Z,84.69
2023-10-05T05:43:42.265Z,84.67
2023-10-05T05:46:19.222Z,84.44
2023-10-05T05:48:54.145Z,83.48
2023-10-05T05:51:25.131Z,83.63
2023-10-05T05:53:53.914Z,83.90
2023-10-05T05:56:21.123Z,84.10
2023-10-05T05:58:55.053Z,83.66
2023-10-05T06:01:22.681Z,83.37
2023-10-05T06:03:50.805Z,83.28
2023-10-05T06:06:18.159Z,83.37
2023-10-05T06:08:45.767Z,83.75
2023-10-05T06:11:16.141Z,83.60
2023-10-05T06:13:47.585Z,83.17
2023-10-05T06:16:15.998Z,82.74
2023-10-05T06:18:55.262Z,82.92
2023-10-05T06:21:22.243Z,82.48
2023-10-05T06:23:53.344Z,83.14
2023-10-05T06:26:20.504Z,83.26
2023-10-05T06:28:47.973Z,83.00
2023-10-05T06:31:15.134Z,82.62
2023-10-05T06:33:43.653Z,82.93
2023-10-05T06:36:10.978Z,83.15
2023-10-05T06:38:38.016Z,83.19
2023-10-05T06:41:05.131Z,82.65
2023-10-05T06:43:37.063Z,82.58
2023-10-05T06:46:19.292Z,82.45
2023-10-05T06:48:57.584Z,82.82
2023-10-05T06:51:29.154Z,82.57
2023-10-05T06:53:59.059Z,82.37
2023-10-05T06:56:28.119Z,82.12
2023-10-05T06:59:01.217Z,82.79
2023-10-05T07:01:28.467Z,82.82
2023-10-05T07:03:57.534Z,82.22
2023-10-05T07:06:24.637Z,82.44
2023-10-05T07:09:00.964Z,82.57
2023-10-05T07:11:27.886Z,83.18
2023-10-05T07:13:54.791Z,83.17
2023-10-05T07:16:21.733Z,82.49
2023-10-05T07:19:01.073Z,82.23
2023-10-05T07:21:28.148Z,81.99
2023-10-05T07:23:55.092Z,81.97
2023-10-05T07:26:22.033Z,83.65
2023-10-05T07:29:23.990Z,82.85
2023-10-05T07:31:53.642Z,81.77
2023-10-05T07:34:22.756Z,82.00
2023-10-05T07:36:52.450Z,81.78
2023-10-05T07:39:20.396Z,82.62
2023-10-05T07:41:50.257Z,82.25
2023-10-05T07:44:18.838Z,81.82
2023-10-05T07:46:46.225Z,81.72
2023-10-05T07:49:13.252Z,81.12
2023-10-05T07:51:40.736Z,82.08
2023-10-05T07:54:08.572Z,81.60
2023-10-05T07:56:36.425Z,83.00
2023-10-05T07:59:03.700Z,89.20
2023-10-05T08:01:30.767Z,88.10
2023-10-05T08:03:57.901Z,83.19
2023-10-05T08:06:26.582Z,84.68
2023-10-05T08:08:56.398Z,86.07
2023-10-05T08:11:23.317Z,85.12
2023-10-05T08:13:50.342Z,85.17
2023-10-05T08:16:17.476Z,83.95
2023-10-05T08:18:45.370Z,83.83
2023-10-05T08:21:12.593Z,83.71
2023-10-05T08:23:39.510Z,80.60
2023-10-05T08:26:08.476Z,80.03
2023-10-05T08:28:35.541Z,80.59
2023-10-05T08:31:12.727Z,80.28
2023-10-05T08:33:39.800Z,80.64
2023-10-05T08:36:13.598Z,80.25
2023-10-05T08:38:53.426Z,80.25
2023-10-05T08:41:33.455Z,80.25
2023-10-05T08:44:01.593Z,80.08
2023-10-05T08:46:30.909Z,79.34
2023-10-05T08:49:09.378Z,79.90
2023-10-05T08:51:37.270Z,80.82
2023-10-05T08:54:13.490Z,80.49
2023-10-05T08:56:48.661Z,79.87
2023-10-05T08:59:16.346Z,79.45
2023-10-05T09:01:44.891Z,80.26
2023-10-05T09:04:13.650Z,79.97
2023-10-05T09:06:49.277Z,80.16
2023-10-05T09:09:19.909Z,80.02
2023-10-05T09:11:46.885Z,80.12
2023-10-05T09:14:24.878Z,80.49
2023-10-05T09:16:57.481Z,80.26
2023-10-05T09:19:32.123Z,80.37
2023-10-05T09:22:05.367Z,79.75
2023-10-05T09:24:32.431Z,79.88
2023-10-05T09:27:14.333Z,78.80
2023-10-05T09:29:42.480Z,78.28
2023-10-05T09:32:24.028Z,78.52
2023-10-05T09:34:51.434Z,78.17
2023-10-05T09:37:24.929Z,79.86
2023-10-05T09:39:55.446Z,79.12
2023-10-05T09:42:27.046Z,78.07
2023-10-05T09:44:58.883Z,77.91
2023-10-05T09:47:29.393Z,77.54
2023-10-05T09:50:00.108Z,80.04
2023-10-05T09:52:47.652Z,78.89
2023-10-05T09:55:18.759Z,78.16
2023-10-05T09:57:55.778Z,77.39
2023-10-05T10:00:49.157Z,76.67
2023-10-05T10:03:18.987Z,76.48
2023-10-05T10:05:53.631Z,76.90
2023-10-05T10:08:22.779Z,76.97
2023-10-05T10:11:02.449Z,77.09
2023-10-05T10:13:34.288Z,76.05
2023-10-05T10:16:04.555Z,75.40
2023-10-05T10:18:40.437Z,75.38
2023-10-05T10:21:14.473Z,75.87
2023-10-05T10:23:41.650Z,75.04
2023-10-05T10:26:22.327Z,74.61
2023-10-05T10:29:15.107Z,75.25
2023-10-05T10:31:45.191Z,75.08
2023-10-05T10:34:30.668Z,74.82
2023-10-05T10:36:58.536Z,73.08
2023-10-05T10:39:29.069Z,73.41
2023-10-05T10:42:14.220Z,73.12
2023-10-05T10:44:59.038Z,71.99
2023-10-05T10:47:28.679Z,71.98
2023-10-05T10:50:18.407Z,72.67
2023-10-05T10:52:46.116Z,70.27
2023-10-05T10:55:16.821Z,69.46
2023-10-05T10:57:48.582Z,69.00
2023-10-05T11:00:37.386Z,68.97
2023-10-05T11:03:12.715Z,69.37
2023-10-05T11:05:49.564Z,68.46
2023-10-05T11:08:16.756Z,68.92
2023-10-05T11:10:44.681Z,70.01
2023-10-05T11:13:22.164Z,71.02
2023-10-05T11:16:00.634Z,68.47
2023-10-05T11:18:32.346Z,66.94
2023-10-05T11:21:17.798Z,68.19
2023-10-05T11:23:44.631Z,68.27
2023-10-05T11:26:44.583Z,67.91
2023-10-05T11:29:22.966Z,68.10
2023-10-05T11:32:10.042Z,68.08
2023-10-05T11:35:19.053Z,68.34
2023-10-05T11:37:34.261Z,67.41
2023-10-05T11:40:02.816Z,69.51
2023-10-05T11:42:36.035Z,69.10
2023-10-05T11:45:14.275Z,68.06
2023-10-05T11:47:47.253Z,68.43
2023-10-05T11:50:25.758Z,68.97
2023-10-05T11:52:56.298Z,69.84
2023-10-05T11:55:26.098Z,70.09
2023-10-05T11:57:54.097Z,70.35
2023-10-05T12:00:21.511Z,70.59
2023-10-05T12:02:48.948Z,69.99
2023-10-05T12:05:16.379Z,69.86
2023-10-05T12:07:47.421Z,69.91
2023-10-05T12:10:17.725Z,69.94
2023-10-05T12:12:51.915Z,68.51
2023-10-05T12:15:20.568Z,69.44
2023-10-05T12:17:47.881Z,70.13
2023-10-05T12:20:16.375Z,69.23
2023-10-05T12:22:46.684Z,69.95
2023-10-05T12:25:17.737Z,69.81
2023-10-05T12:27:46.334Z,68.70
2023-10-05T12:30:13.419Z,68.23
2023-10-05T12:32:41.066Z,68.28
2023-10-05T12:35:14.998Z,67.95
2023-10-05T12:37:43.540Z,67.85
2023-10-05T12:40:20.482Z,69.16
2023-10-05T12:43:14.030Z,69.56
2023-10-05T12:45:46.807Z,69.77
2023-10-05T12:48:13.997Z,69.85
2023-10-05T12:50:43.845Z,69.48
2023-10-05T12:53:11.004Z,69.21
2023-10-05T12:55:39.256Z,68.00
2023-10-05T12:58:10.345Z,68.79
2023-10-05T13:00:42.399Z,67.23
2023-10-05T13:03:14.224Z,67.86
2023-10-05T13:05:45.353Z,67.49
2023-10-05T13:08:13.423Z,67.33
2023-10-05T13:10:41.296Z,67.48
2023-10-05T13:13:18.921Z,68.26
2023-10-05T13:15:46.766Z,69.49
2023-10-05T13:18:20.306Z,69.64
2023-10-05T13:20:55.817Z,69.24
2023-10-05T13:23:24.506Z,69.81
2023-10-05T13:25:54.477Z,68.68
2023-10-05T13:28:25.320Z,69.94
2023-10-05T13:30:52.514Z,69.65
2023-10-05T13:33:24.488Z,69.16
2023-10-05T13:35:52.992Z,68.68
2023-10-05T13:38:25.395Z,68.79
2023-10-05T13:41:07.251Z,69.69
2023-10-05T13:43:35.509Z,69.39
2023-10-05T13:46:16.297Z,68.87
2023-10-05T13:49:04.904Z,68.00
2023-10-05T13:51:35.408Z,67.39
2023-10-05T13:54:08.246Z,68.85
2023-10-05T13:56:35.414Z,71.80
2023-10-05T13:59:04.857Z,69.16
2023-10-05T14:01:40.077Z,68.17
2023-10-05T14:04:08.009Z,69.32
2023-10-05T14:06:36.284Z,69.39
2023-10-05T14:09:07.133Z,68.55
2023-10-05T14:11:35.312Z,68.83
2023-10-05T14:14:03.349Z,69.73
2023-10-05T14:16:30.580Z,69.89
2023-10-05T14:19:02.366Z,70.28
2023-10-05T14:21:29.402Z,70.11
2023-10-05T14:24:00.013Z,71.00
2023-10-05T14:26:30.112Z,70.98
2023-10-05T14:28:57.258Z,70.91
2023-10-05T14:31:27.137Z,71.13
2023-10-05T14:33:55.814Z,72.18
2023-10-05T14:36:23.426Z,73.57
2023-10-05T14:39:09.165Z,73.31
2023-10-05T14:41:38.322Z,73.01
2023-10-05T14:44:07.764Z,72.28
2023-10-05T14:46:35.081Z,71.02
2023-10-05T14:49:02.171Z,71.03
2023-10-05T14:51:29.227Z,70.99
2023-10-05T14:53:56.216Z,70.88
2023-10-05T14:56:24.095Z,71.75
2023-10-05T14:58:57.205Z,71.82
2023-10-05T15:01:24.473Z,73.31
2023-10-05T15:03:53.211Z,73.57
2023-10-05T15:06:20.310Z,72.85
2023-10-05T15:08:57.007Z,74.89
2023-10-05T15:11:28.264Z,73.15
2023-10-05T15:13:57.043Z,72.93
2023-10-05T15:16:26.291Z,73.86
2023-10-05T15:18:56.734Z,74.11
2023-10-05T15:21:24.374Z,73.63
2023-10-05T15:23:53.064Z,73.60
2023-10-05T15:26:19.970Z,73.15
2023-10-05T15:28:47.034Z,73.71
2023-10-05T15:31:14.152Z,73.89
2023-10-05T15:33:42.520Z,74.04
2023-10-05T15:36:10.611Z,73.76
2023-10-05T15:38:48.362Z,74.44
2023-10-05T15:41:18.584Z,74.83
2023-10-05T15:43:46.035Z,74.71
2023-10-05T15:46:12.984Z,74.91
2023-10-05T15:48:43.947Z,73.96
2023-10-05T15:51:14.025Z,73.93
2023-10-05T15:53:42.520Z,73.54
2023-10-05T15:56:10.348Z,74.27
2023-10-05T15:58:37.761Z,73.55
2023-10-05T16:01:04.791Z,73.34
2023-10-05T16:03:31.918Z,73.11
2023-10-05T16:06:01.432Z,72.02
2023-10-05T16:08:28.469Z,72.04
2023-10-05T16:10:55.483Z,72.38
2023-10-05T16:13:22.467Z,72.30
2023-10-05T16:15:49.468Z,72.80
2023-10-05T16:18:16.602Z,74.41
2023-10-05T16:20:43.497Z,73.52
2023-10-05T16:23:13.113Z,72.57
2023-10-05T16:25:41.559Z,72.75
2023-10-05T16:28:09.957Z,72.31
2023-10-05T16:30:38.041Z,72.88
2023-10-05T16:33:07.345Z,71.94
2023-10-05T16:35:41.909Z,71.38
2023-10-05T16:38:10.048Z,70.91
2023-10-05T16:40:37.037Z,70.41
2023-10-05T16:43:04.132Z,69.75
2023-10-05T16:45:31.109Z,69.43
2023-10-05T16:47:58.319Z,70.95
2023-10-05T16:50:27.902Z,70.49
2023-10-05T16:52:55.869Z,69.71
2023-10-05T16:55:23.729Z,69.58
2023-10-05T16:57:52.681Z,70.12
2023-10-05T17:00:24.434Z,68.88
2023-10-05T17:02:53.264Z,68.92
2023-10-05T17:05:23.828Z,69.49
2023-10-05T17:07:52.877Z,69.32
2023-10-05T17:10:20.370Z,68.64
2023-10-05T17:12:48.355Z,69.04
2023-10-05T17:15:18.944Z,68.91
2023-10-05T17:17:46.036Z,69.50
2023-10-05T17:20:13.396Z,69.89
2023-10-05T17:22:40.752Z,69.93
2023-10-05T17:25:09.257Z,70.49
2023-10-05T17:27:38.585Z,71.10
2023-10-05T17:30:06.715Z,71.38
2023-10-05T17:32:34.195Z,72.04
2023-10-05T17:35:02.033Z,71.84
2023-10-05T17:37:35.562Z,73.19
2023-10-05T17:40:06.309Z,73.27
2023-10-05T17:42:35.030Z,72.90
2023-10-05T17:45:02.960Z,73.00
2023-10-05T17:47:29.938Z,73.63
2023-10-05T17:49:58.050Z,73.96
2023-10-05T17:52:25.133Z,75.33
2023-10-05T17:54:52.216Z,74.69
2023-10-05T17:57:19.355Z,74.78
2023-10-05T17:59:48.959Z,73.96
2023-10-05T18:02:20.133Z,72.93
2023-10-05T18:04:47.239Z,73.01
2023-10-05T18:07:14.328Z,74.10
2023-10-05T18:09:41.412Z,74.05
2023-10-05T18:12:14.408Z,72.86
2023-10-05T18:14:41.615Z,72.98
2023-10-05T18:17:09.706Z,71.87
2023-10-05T18:19:38.205Z,72.55
2023-10-05T18:22:06.041Z,70.90
2023-10-05T18:24:33.053Z,71.94
2023-10-05T18:26:59.981Z,73.64
2023-10-05T18:29:28.235Z,72.92
2023-10-05T18:32:06.600Z,72.91
2023-10-05T18:34:40.311Z,73.10
2023-10-05T18:37:11.654Z,72.72
2023-10-05T18:39:38.624Z,73.03
2023-10-05T18:42:05.682Z,73.63
2023-10-05T18:44:32.718Z,73.48
2023-10-05T18:46:59.715Z,74.51
2023-10-05T18:49:26.905Z,74.05
2023-10-05T18:51:54.884Z,73.93
2023-10-05T18:54:22.231Z,74.45
2023-10-05T18:56:51.167Z,75.53
2023-10-05T18:59:18.345Z,75.04
2023-10-05T19:01:45.586Z,75.82
2023-10-05T19:04:12.635Z,75.44
2023-10-05T19:06:39.709Z,75.53
2023-10-05T19:09:11.171Z,75.73
2023-10-05T19:11:38.873Z,77.49
2023-10-05T19:14:06.735Z,76.70
2023-10-05T19:16:34.482Z,76.68
2023-10-05T19:19:05.868Z,76.35
2023-10-05T19:21:32.916Z,76.82
2023-10-05T19:24:00.146Z,76.40
2023-10-05T19:26:27.129Z,76.94
2023-10-05T19:28:58.422Z,77.19
2023-10-05T19:31:25.751Z,77.34
2023-10-05T19:33:52.726Z,77.77
2023-10-05T19:36:19.821Z,77.99
2023-10-05T19:38:59.008Z,78.09
2023-10-05T19:41:28.220Z,77.84
2023-10-05T19:43:55.342Z,78.29
2023-10-05T19:46:24.251Z,78.77
2023-10-05T19:48:53.281Z,78.32
2023-10-05T19:51:21.817Z,78.31
2023-10-05T19:53:48.870Z,79.25
2023-10-05T19:56:30.067Z,79.30
2023-10-05T19:59:07.357Z,79.16
2023-10-05T20:01:34.595Z,79.80
2023-10-05T20:04:02.109Z,79.42
2023-10-05T20:06:30.906Z,79.30
2023-10-05T20:08:58.831Z,79.79
2023-10-05T20:11:25.803Z,79.64
2023-10-05T20:13:52.950Z,79.79
2023-10-05T20:16:20.160Z,81.11
2023-10-05T20:18:56.460Z,80.63
2023-10-05T20:21:23.558Z,80.19
2023-10-05T20:23:50.557Z,80.07
2023-10-05T20:26:17.454Z,80.29
2023-10-05T20:28:52.952Z,80.55
2023-10-05T20:31:20.297Z,80.34
2023-10-05T20:33:47.304Z,80.72
2023-10-05T20:36:14.953Z,80.59
2023-10-05T20:38:42.151Z,80.32
2023-10-05T20:41:09.430Z,80.49
2023-10-05T20:43:36.733Z,80.70
2023-10-05T20:46:09.026Z,82.68
2023-10-05T20:48:36.361Z,82.83
2023-10-05T20:51:04.978Z,81.86
2023-10-05T20:53:35.447Z,81.50
2023-10-05T20:56:13.086Z,81.57
2023-10-05T20:58:40.417Z,82.04
2023-10-05T21:01:07.947Z,83.11
2023-10-05T21:03:38.187Z,82.87
2023-10-05T21:06:08.981Z,82.76
2023-10-05T21:08:38.012Z,83.01
2023-10-05T21:11:06.128Z,82.80
2023-10-05T21:13:35.410Z,84.32
2023-10-05T21:16:03.346Z,84.92
2023-10-05T21:18:32.557Z,83.62
2023-10-05T21:21:00.227Z,84.79
2023-10-05T21:23:27.340Z,83.61
2023-10-05T21:25:55.064Z,83.47
2023-10-05T21:28:22.743Z,83.10
2023-10-05T21:30:49.769Z,84.63
2023-10-05T21:33:18.923Z,83.79
2023-10-05T21:35:46.696Z,82.93
2023-10-05T21:38:14.289Z,83.96
2023-10-05T21:40:41.299Z,84.62
2023-10-05T21:43:08.399Z,84.70
2023-10-05T21:45:35.396Z,84.79
2023-10-05T21:48:02.436Z,84.64
2023-10-05T21:50:29.473Z,85.25
2023-10-05T21:52:56.582Z,84.94
2023-10-05T21:55:23.764Z,84.27
2023-10-05T21:57:51.034Z,84.53
2023-10-05T22:00:38.147Z,85.67
2023-10-05T22:03:09.749Z,85.28
2023-10-05T22:05:38.167Z,85.40
2023-10-05T22:08:09.261Z,85.71
2023-10-05T22:10:37.025Z,85.89
2023-10-05T22:13:05.170Z,85.75
2023-10-05T22:15:33.074Z,85.61
2023-10-05T22:18:01.016Z,85.65
2023-10-05T22:20:29.813Z,86.02
2023-10-05T22:22:57.307Z,86.73
2023-10-05T22:25:24.910Z,86.79
2023-10-05T22:27:52.292Z,86.16
2023-10-05T22:30:20.044Z,86.47
2023-10-05T22:32:48.464Z,86.10
2023-10-05T22:35:15.618Z,87.07
2023-10-05T22:37:42.648Z,88.20
2023-10-05T22:40:14.103Z,87.17
2023-10-05T22:42:44.268Z,86.87
2023-10-05T22:45:12.278Z,86.64
2023-10-05T22:47:40.112Z,86.73
2023-10-05T22:50:07.566Z,87.56
2023-10-05T22:52:35.518Z,86.88
2023-10-05T22:55:02.602Z,86.71
2023-10-05T22:57:32.495Z,86.47
2023-10-05T22:59:59.785Z,86.56
2023-10-05T23:02:26.956Z,87.32
2023-10-05T23:04:54.292Z,88.60
2023-10-05T23:07:21.315Z,87.41
2023-10-05T23:09:48.408Z,87.32
2023-10-05T23:12:16.017Z,86.65
2023-10-05T23:14:50.308Z,88.16
2023-10-05T23:17:18.875Z,88.65
2023-10-05T23:19:46.113Z,87.93
2023-10-05T23:22:13.911Z,88.34
2023-10-05T23:24:43.078Z,88.52
2023-10-05T23:27:13.040Z,88.10
2023-10-05T23:29:41.170Z,87.45
2023-10-05T23:32:08.279Z,88.49
2023-10-05T23:34:39.588Z,88.18
2023-10-05T23:37:09.961Z,88.28
2023-10-05T23:39:37.197Z,88.37
2023-10-05T23:42:15.782Z,88.57
2023-10-05T23:44:43.097Z,88.98
2023-10-05T23:47:23.818Z,89.42
2023-10-05T23:49:54.774Z,88.77
2023-10-05T23:52:22.653Z,88.98
2023-10-05T23:54:49.657Z,88.89
2023-10-05T23:57:22.172Z,89.89
2023-10-05T23:59:50.053Z,88.90
